sensor_id;sensor_type;location;lat;lon;timestamp;P1;durP1;ratioP1;P2;durP2;ratioP2
62929;SDS011;49036;42.782;23.108;2023-03-24T00:00:44;50.40;;;17.02;;
62929;SDS011;49036;42.782;23.108;2023-03-24T00:03:10;38.90;;;15.95;;
62929;SDS011;49036;42.782;23.108;2023-03-24T00:05:35;34.22;;;16.67;;
62929;SDS011;49036;42.782;23.108;2023-03-24T00:08:02;44.35;;;17.70;;
62929;SDS011;49036;42.782;23.108;2023-03-24T00:10:29;38.45;;;17.63;;
62929;SDS011;49036;42.782;23.108;2023-03-24T00:12:58;39.63;;;17.67;;
62929;SDS011;49036;42.782;23.108;2023-03-24T00:15:25;39.40;;;18.10;;
62929;SDS011;49036;42.782;23.108;2023-03-24T00:17:51;44.60;;;19.73;;
62929;SDS011;49036;42.782;23.108;2023-03-24T00:20:20;46.83;;;19.33;;
62929;SDS011;49036;42.782;23.108;2023-03-24T00:22:48;37.58;;;16.70;;
62929;SDS011;49036;42.782;23.108;2023-03-24T00:25:22;51.40;;;20.42;;
62929;SDS011;49036;42.782;23.108;2023-03-24T00:27:52;43.13;;;19.15;;
62929;SDS011;49036;42.782;23.108;2023-03-24T00:30:18;43.85;;;17.95;;
62929;SDS011;49036;42.782;23.108;2023-03-24T00:32:44;49.15;;;20.25;;
62929;SDS011;49036;42.782;23.108;2023-03-24T00:35:11;43.22;;;17.40;;
62929;SDS011;49036;42.782;23.108;2023-03-24T00:40:22;43.58;;;18.60;;
62929;SDS011;49036;42.782;23.108;2023-03-24T00:42:49;51.60;;;20.75;;
62929;SDS011;49036;42.782;23.108;2023-03-24T00:45:16;48.17;;;21.90;;
62929;SDS011;49036;42.782;23.108;2023-03-24T00:47:44;50.20;;;20.20;;
62929;SDS011;49036;42.782;23.108;2023-03-24T00:50:16;59.05;;;22.33;;
62929;SDS011;49036;42.782;23.108;2023-03-24T00:52:44;49.95;;;22.45;;
62929;SDS011;49036;42.782;23.108;2023-03-24T00:55:12;53.90;;;21.25;;
62929;SDS011;49036;42.782;23.108;2023-03-24T00:57:40;50.78;;;19.98;;
62929;SDS011;49036;42.782;23.108;2023-03-24T01:00:14;55.63;;;21.55;;
62929;SDS011;49036;42.782;23.108;2023-03-24T01:02:47;56.05;;;24.20;;
62929;SDS011;49036;42.782;23.108;2023-03-24T01:05:18;46.78;;;21.08;;
62929;SDS011;49036;42.782;23.108;2023-03-24T01:08:03;50.55;;;21.02;;
62929;SDS011;49036;42.782;23.108;2023-03-24T01:10:35;48.72;;;22.60;;
62929;SDS011;49036;42.782;23.108;2023-03-24T01:13:14;56.20;;;23.17;;
62929;SDS011;49036;42.782;23.108;2023-03-24T01:15:50;52.03;;;20.92;;
62929;SDS011;49036;42.782;23.108;2023-03-24T01:18:17;47.03;;;21.73;;
62929;SDS011;49036;42.782;23.108;2023-03-24T01:20:44;59.92;;;22.13;;
62929;SDS011;49036;42.782;23.108;2023-03-24T01:23:14;58.22;;;21.30;;
62929;SDS011;49036;42.782;23.108;2023-03-24T01:25:46;59.20;;;23.83;;
62929;SDS011;49036;42.782;23.108;2023-03-24T01:28:16;62.88;;;23.42;;
62929;SDS011;49036;42.782;23.108;2023-03-24T01:30:48;62.80;;;24.20;;
62929;SDS011;49036;42.782;23.108;2023-03-24T01:33:18;61.38;;;23.35;;
62929;SDS011;49036;42.782;23.108;2023-03-24T01:35:43;57.75;;;22.60;;
62929;SDS011;49036;42.782;23.108;2023-03-24T01:38:10;52.17;;;23.08;;
62929;SDS011;49036;42.782;23.108;2023-03-24T01:40:38;57.50;;;23.40;;
62929;SDS011;49036;42.782;23.108;2023-03-24T01:43:06;59.55;;;23.48;;
62929;SDS011;49036;42.782;23.108;2023-03-24T01:48:08;65.57;;;26.05;;
62929;SDS011;49036;42.782;23.108;2023-03-24T01:50:45;54.33;;;22.45;;
62929;SDS011;49036;42.782;23.108;2023-03-24T01:53:19;53.70;;;21.48;;
62929;SDS011;49036;42.782;23.108;2023-03-24T01:55:45;53.53;;;22.33;;
62929;SDS011;49036;42.782;23.108;2023-03-24T01:58:12;50.10;;;19.88;;
62929;SDS011;49036;42.782;23.108;2023-03-24T02:00:38;53.15;;;22.95;;
62929;SDS011;49036;42.782;23.108;2023-03-24T02:03:08;52.83;;;21.80;;
62929;SDS011;49036;42.782;23.108;2023-03-24T02:05:38;66.13;;;23.83;;
62929;SDS011;49036;42.782;23.108;2023-03-24T02:10:47;56.47;;;25.25;;
62929;SDS011;49036;42.782;23.108;2023-03-24T02:13:15;51.15;;;21.85;;
62929;SDS011;49036;42.782;23.108;2023-03-24T02:15:48;53.13;;;22.58;;
62929;SDS011;49036;42.782;23.108;2023-03-24T02:43:50;68.97;;;26.27;;
62929;SDS011;49036;42.782;23.108;2023-03-24T02:46:42;68.45;;;24.25;;
62929;SDS011;49036;42.782;23.108;2023-03-24T02:49:20;74.22;;;24.80;;
62929;SDS011;49036;42.782;23.108;2023-03-24T02:54:45;87.22;;;26.33;;
62929;SDS011;49036;42.782;23.108;2023-03-24T03:00:20;77.78;;;27.38;;
62929;SDS011;49036;42.782;23.108;2023-03-24T03:02:56;65.93;;;24.48;;
62929;SDS011;49036;42.782;23.108;2023-03-24T03:05:32;63.13;;;23.65;;
62929;SDS011;49036;42.782;23.108;2023-03-24T03:08:02;72.38;;;24.27;;
62929;SDS011;49036;42.782;23.108;2023-03-24T03:10:32;69.57;;;24.95;;
62929;SDS011;49036;42.782;23.108;2023-03-24T03:13:03;49.70;;;20.83;;
62929;SDS011;49036;42.782;23.108;2023-03-24T03:15:53;59.63;;;23.45;;
62929;SDS011;49036;42.782;23.108;2023-03-24T03:18:28;54.97;;;21.85;;
62929;SDS011;49036;42.782;23.108;2023-03-24T03:21:01;58.20;;;23.23;;
62929;SDS011;49036;42.782;23.108;2023-03-24T03:23:41;44.53;;;19.75;;
62929;SDS011;49036;42.782;23.108;2023-03-24T03:28:41;50.88;;;19.20;;
62929;SDS011;49036;42.782;23.108;2023-03-24T03:31:14;59.80;;;21.48;;
62929;SDS011;49036;42.782;23.108;2023-03-24T03:36:38;57.70;;;21.60;;
62929;SDS011;49036;42.782;23.108;2023-03-24T03:39:15;52.58;;;22.50;;
62929;SDS011;49036;42.782;23.108;2023-03-24T03:41:48;55.65;;;23.13;;
62929;SDS011;49036;42.782;23.108;2023-03-24T03:44:13;61.50;;;22.90;;
62929;SDS011;49036;42.782;23.108;2023-03-24T03:46:40;67.65;;;25.35;;
62929;SDS011;49036;42.782;23.108;2023-03-24T03:49:06;76.82;;;26.70;;
62929;SDS011;49036;42.782;23.108;2023-03-24T03:51:33;77.13;;;27.17;;
62929;SDS011;49036;42.782;23.108;2023-03-24T03:56:27;52.58;;;21.50;;
62929;SDS011;49036;42.782;23.108;2023-03-24T03:58:54;52.35;;;20.25;;
62929;SDS011;49036;42.782;23.108;2023-03-24T04:01:24;52.83;;;21.63;;
62929;SDS011;49036;42.782;23.108;2023-03-24T04:06:56;67.28;;;27.08;;
62929;SDS011;49036;42.782;23.108;2023-03-24T04:12:13;74.63;;;28.58;;
62929;SDS011;49036;42.782;23.108;2023-03-24T04:15:08;78.85;;;29.65;;
62929;SDS011;49036;42.782;23.108;2023-03-24T04:26:24;68.93;;;25.88;;
62929;SDS011;49036;42.782;23.108;2023-03-24T04:29:02;61.78;;;23.55;;
62929;SDS011;49036;42.782;23.108;2023-03-24T04:39:28;54.92;;;20.40;;
62929;SDS011;49036;42.782;23.108;2023-03-24T04:42:00;56.55;;;23.90;;
62929;SDS011;49036;42.782;23.108;2023-03-24T04:44:29;52.15;;;19.85;;
62929;SDS011;49036;42.782;23.108;2023-03-24T04:46:57;61.08;;;22.25;;
62929;SDS011;49036;42.782;23.108;2023-03-24T04:49:25;68.68;;;30.00;;
62929;SDS011;49036;42.782;23.108;2023-03-24T04:51:51;86.63;;;37.72;;
62929;SDS011;49036;42.782;23.108;2023-03-24T04:54:18;68.28;;;31.17;;
62929;SDS011;49036;42.782;23.108;2023-03-24T04:56:47;51.85;;;23.63;;
62929;SDS011;49036;42.782;23.108;2023-03-24T04:59:14;53.33;;;21.70;;
62929;SDS011;49036;42.782;23.108;2023-03-24T05:01:41;48.42;;;19.48;;
62929;SDS011;49036;42.782;23.108;2023-03-24T05:04:17;37.33;;;17.58;;
62929;SDS011;49036;42.782;23.108;2023-03-24T05:06:44;38.70;;;17.70;;
62929;SDS011;49036;42.782;23.108;2023-03-24T05:11:37;36.60;;;14.60;;
62929;SDS011;49036;42.782;23.108;2023-03-24T05:14:02;34.95;;;14.77;;
62929;SDS011;49036;42.782;23.108;2023-03-24T05:16:28;34.88;;;16.65;;
62929;SDS011;49036;42.782;23.108;2023-03-24T05:18:54;38.05;;;17.45;;
62929;SDS011;49036;42.782;23.108;2023-03-24T05:21:19;41.17;;;16.90;;
62929;SDS011;49036;42.782;23.108;2023-03-24T05:23:45;27.42;;;14.45;;
62929;SDS011;49036;42.782;23.108;2023-03-24T05:26:11;27.38;;;13.38;;
62929;SDS011;49036;42.782;23.108;2023-03-24T05:28:36;29.75;;;14.20;;
62929;SDS011;49036;42.782;23.108;2023-03-24T05:31:02;28.88;;;12.07;;
62929;SDS011;49036;42.782;23.108;2023-03-24T05:33:28;35.78;;;17.58;;
62929;SDS011;49036;42.782;23.108;2023-03-24T05:35:53;35.13;;;17.33;;
62929;SDS011;49036;42.782;23.108;2023-03-24T05:38:19;35.03;;;17.45;;
62929;SDS011;49036;42.782;23.108;2023-03-24T05:40:45;37.85;;;18.88;;
62929;SDS011;49036;42.782;23.108;2023-03-24T05:43:10;44.53;;;19.55;;
62929;SDS011;49036;42.782;23.108;2023-03-24T05:45:37;38.30;;;19.55;;
62929;SDS011;49036;42.782;23.108;2023-03-24T05:48:02;35.30;;;17.52;;
62929;SDS011;49036;42.782;23.108;2023-03-24T05:50:28;39.90;;;20.13;;
62929;SDS011;49036;42.782;23.108;2023-03-24T05:52:54;37.63;;;17.50;;
62929;SDS011;49036;42.782;23.108;2023-03-24T05:55:20;38.42;;;18.40;;
62929;SDS011;49036;42.782;23.108;2023-03-24T05:57:46;37.45;;;18.67;;
62929;SDS011;49036;42.782;23.108;2023-03-24T06:00:12;40.78;;;18.33;;
62929;SDS011;49036;42.782;23.108;2023-03-24T06:02:45;37.00;;;18.85;;
62929;SDS011;49036;42.782;23.108;2023-03-24T06:05:11;35.05;;;20.40;;
62929;SDS011;49036;42.782;23.108;2023-03-24T06:07:37;38.78;;;19.15;;
62929;SDS011;49036;42.782;23.108;2023-03-24T06:10:06;36.58;;;17.90;;
62929;SDS011;49036;42.782;23.108;2023-03-24T06:12:38;35.85;;;16.95;;
62929;SDS011;49036;42.782;23.108;2023-03-24T06:15:05;41.90;;;19.85;;
62929;SDS011;49036;42.782;23.108;2023-03-24T06:17:32;40.85;;;20.80;;
62929;SDS011;49036;42.782;23.108;2023-03-24T06:22:31;42.20;;;19.58;;
62929;SDS011;49036;42.782;23.108;2023-03-24T06:24:57;36.25;;;16.77;;
62929;SDS011;49036;42.782;23.108;2023-03-24T06:27:24;42.00;;;19.98;;
62929;SDS011;49036;42.782;23.108;2023-03-24T06:29:57;37.22;;;18.70;;
62929;SDS011;49036;42.782;23.108;2023-03-24T06:32:23;43.80;;;18.88;;
62929;SDS011;49036;42.782;23.108;2023-03-24T06:34:50;34.97;;;18.33;;
62929;SDS011;49036;42.782;23.108;2023-03-24T06:37:17;37.20;;;19.35;;
62929;SDS011;49036;42.782;23.108;2023-03-24T06:39:44;39.08;;;18.63;;
62929;SDS011;49036;42.782;23.108;2023-03-24T06:42:10;42.97;;;18.95;;
62929;SDS011;49036;42.782;23.108;2023-03-24T06:44:35;32.65;;;17.00;;
62929;SDS011;49036;42.782;23.108;2023-03-24T06:47:02;35.53;;;18.77;;
62929;SDS011;49036;42.782;23.108;2023-03-24T06:49:28;36.30;;;18.48;;
62929;SDS011;49036;42.782;23.108;2023-03-24T06:51:53;41.65;;;18.27;;
62929;SDS011;49036;42.782;23.108;2023-03-24T06:54:19;35.22;;;18.45;;
62929;SDS011;49036;42.782;23.108;2023-03-24T06:56:46;42.35;;;19.75;;
62929;SDS011;49036;42.782;23.108;2023-03-24T06:59:12;39.90;;;19.45;;
62929;SDS011;49036;42.782;23.108;2023-03-24T07:01:37;44.63;;;21.20;;
62929;SDS011;49036;42.782;23.108;2023-03-24T07:04:04;35.17;;;18.73;;
62929;SDS011;49036;42.782;23.108;2023-03-24T07:06:30;35.72;;;17.65;;
62929;SDS011;49036;42.782;23.108;2023-03-24T07:08:56;36.42;;;16.65;;
62929;SDS011;49036;42.782;23.108;2023-03-24T07:11:22;35.25;;;18.00;;
62929;SDS011;49036;42.782;23.108;2023-03-24T07:13:48;30.58;;;16.27;;
62929;SDS011;49036;42.782;23.108;2023-03-24T07:16:14;31.77;;;15.68;;
62929;SDS011;49036;42.782;23.108;2023-03-24T07:18:39;27.80;;;14.55;;
62929;SDS011;49036;42.782;23.108;2023-03-24T07:21:05;26.48;;;14.00;;
62929;SDS011;49036;42.782;23.108;2023-03-24T07:23:31;26.63;;;13.85;;
62929;SDS011;49036;42.782;23.108;2023-03-24T07:28:23;23.98;;;12.40;;
62929;SDS011;49036;42.782;23.108;2023-03-24T07:30:48;24.75;;;14.98;;
62929;SDS011;49036;42.782;23.108;2023-03-24T07:33:14;31.83;;;13.82;;
62929;SDS011;49036;42.782;23.108;2023-03-24T07:35:40;29.23;;;13.80;;
62929;SDS011;49036;42.782;23.108;2023-03-24T07:38:06;28.40;;;15.20;;
62929;SDS011;49036;42.782;23.108;2023-03-24T07:40:32;25.95;;;15.43;;
62929;SDS011;49036;42.782;23.108;2023-03-24T07:43:02;26.27;;;13.00;;
62929;SDS011;49036;42.782;23.108;2023-03-24T07:45:30;27.23;;;13.30;;
62929;SDS011;49036;42.782;23.108;2023-03-24T07:47:56;29.40;;;13.30;;
62929;SDS011;49036;42.782;23.108;2023-03-24T07:50:26;24.25;;;12.13;;
62929;SDS011;49036;42.782;23.108;2023-03-24T07:52:53;23.40;;;12.98;;
62929;SDS011;49036;42.782;23.108;2023-03-24T07:55:19;22.00;;;12.32;;
62929;SDS011;49036;42.782;23.108;2023-03-24T07:57:45;20.77;;;10.98;;
62929;SDS011;49036;42.782;23.108;2023-03-24T08:00:12;21.02;;;12.85;;
62929;SDS011;49036;42.782;23.108;2023-03-24T08:02:46;26.05;;;11.43;;
62929;SDS011;49036;42.782;23.108;2023-03-24T08:05:13;23.10;;;12.30;;
62929;SDS011;49036;42.782;23.108;2023-03-24T08:07:40;16.55;;;10.55;;
62929;SDS011;49036;42.782;23.108;2023-03-24T08:10:11;26.23;;;13.32;;
62929;SDS011;49036;42.782;23.108;2023-03-24T08:12:37;22.15;;;11.45;;
62929;SDS011;49036;42.782;23.108;2023-03-24T08:17:30;19.45;;;12.55;;
62929;SDS011;49036;42.782;23.108;2023-03-24T08:19:56;19.88;;;11.43;;
62929;SDS011;49036;42.782;23.108;2023-03-24T08:24:47;26.05;;;13.32;;
62929;SDS011;49036;42.782;23.108;2023-03-24T08:29:38;24.73;;;12.07;;
62929;SDS011;49036;42.782;23.108;2023-03-24T08:34:29;22.67;;;12.20;;
62929;SDS011;49036;42.782;23.108;2023-03-24T08:39:20;17.92;;;10.30;;
62929;SDS011;49036;42.782;23.108;2023-03-24T08:41:48;20.45;;;11.43;;
62929;SDS011;49036;42.782;23.108;2023-03-24T08:44:14;22.67;;;13.00;;
62929;SDS011;49036;42.782;23.108;2023-03-24T08:46:41;26.02;;;11.88;;
62929;SDS011;49036;42.782;23.108;2023-03-24T08:49:07;21.63;;;11.48;;
62929;SDS011;49036;42.782;23.108;2023-03-24T08:51:33;19.00;;;11.15;;
62929;SDS011;49036;42.782;23.108;2023-03-24T08:53:59;17.27;;;9.68;;
62929;SDS011;49036;42.782;23.108;2023-03-24T08:56:25;18.67;;;10.52;;
62929;SDS011;49036;42.782;23.108;2023-03-24T08:58:51;18.50;;;11.93;;
62929;SDS011;49036;42.782;23.108;2023-03-24T09:01:18;19.08;;;11.77;;
62929;SDS011;49036;42.782;23.108;2023-03-24T09:03:45;23.00;;;10.88;;
62929;SDS011;49036;42.782;23.108;2023-03-24T09:07:41;20.52;;;9.82;;
62929;SDS011;49036;42.782;23.108;2023-03-24T09:10:08;19.90;;;11.85;;
62929;SDS011;49036;42.782;23.108;2023-03-24T09:12:35;20.27;;;10.93;;
62929;SDS011;49036;42.782;23.108;2023-03-24T09:15:03;19.98;;;10.23;;
62929;SDS011;49036;42.782;23.108;2023-03-24T09:17:30;18.50;;;10.13;;
62929;SDS011;49036;42.782;23.108;2023-03-24T09:19:56;20.17;;;10.95;;
62929;SDS011;49036;42.782;23.108;2023-03-24T09:22:22;20.13;;;11.10;;
62929;SDS011;49036;42.782;23.108;2023-03-24T09:24:48;21.35;;;12.05;;
62929;SDS011;49036;42.782;23.108;2023-03-24T09:27:14;25.05;;;11.18;;
62929;SDS011;49036;42.782;23.108;2023-03-24T09:29:41;20.67;;;10.77;;
62929;SDS011;49036;42.782;23.108;2023-03-24T09:32:07;18.80;;;10.32;;
62929;SDS011;49036;42.782;23.108;2023-03-24T09:34:33;14.52;;;8.77;;
62929;SDS011;49036;42.782;23.108;2023-03-24T09:36:59;20.67;;;10.23;;
62929;SDS011;49036;42.782;23.108;2023-03-24T09:39:25;19.52;;;11.38;;
62929;SDS011;49036;42.782;23.108;2023-03-24T09:41:52;19.52;;;10.35;;
62929;SDS011;49036;42.782;23.108;2023-03-24T09:46:56;13.98;;;8.88;;
62929;SDS011;49036;42.782;23.108;2023-03-24T09:49:29;16.77;;;10.57;;
62929;SDS011;49036;42.782;23.108;2023-03-24T09:52:04;15.82;;;9.63;;
62929;SDS011;49036;42.782;23.108;2023-03-24T09:54:37;15.15;;;9.32;;
62929;SDS011;49036;42.782;23.108;2023-03-24T09:57:15;15.20;;;8.10;;
62929;SDS011;49036;42.782;23.108;2023-03-24T09:59:45;14.23;;;8.25;;
62929;SDS011;49036;42.782;23.108;2023-03-24T10:02:11;11.45;;;7.20;;
62929;SDS011;49036;42.782;23.108;2023-03-24T10:04:40;17.48;;;7.50;;
62929;SDS011;49036;42.782;23.108;2023-03-24T10:07:14;15.55;;;8.95;;
62929;SDS011;49036;42.782;23.108;2023-03-24T10:11:27;11.05;;;7.03;;
62929;SDS011;49036;42.782;23.108;2023-03-24T10:16:35;11.10;;;7.50;;
62929;SDS011;49036;42.782;23.108;2023-03-24T10:19:40;13.98;;;7.15;;
62929;SDS011;49036;42.782;23.108;2023-03-24T10:32:43;13.23;;;7.00;;
62929;SDS011;49036;42.782;23.108;2023-03-24T10:35:14;14.32;;;6.32;;
62929;SDS011;49036;42.782;23.108;2023-03-24T10:37:44;10.15;;;5.88;;
62929;SDS011;49036;42.782;23.108;2023-03-24T10:40:14;11.90;;;6.72;;
62929;SDS011;49036;42.782;23.108;2023-03-24T10:42:42;10.82;;;6.10;;
62929;SDS011;49036;42.782;23.108;2023-03-24T10:45:14;8.88;;;5.55;;
62929;SDS011;49036;42.782;23.108;2023-03-24T10:47:49;9.07;;;5.53;;
62929;SDS011;49036;42.782;23.108;2023-03-24T10:50:17;12.52;;;5.93;;
62929;SDS011;49036;42.782;23.108;2023-03-24T10:52:48;8.95;;;5.30;;
62929;SDS011;49036;42.782;23.108;2023-03-24T10:55:16;8.27;;;4.65;;
62929;SDS011;49036;42.782;23.108;2023-03-24T10:57:43;8.77;;;5.35;;
62929;SDS011;49036;42.782;23.108;2023-03-24T11:00:15;7.85;;;4.35;;
62929;SDS011;49036;42.782;23.108;2023-03-24T11:02:43;7.22;;;4.82;;
62929;SDS011;49036;42.782;23.108;2023-03-24T11:05:27;8.77;;;5.38;;
62929;SDS011;49036;42.782;23.108;2023-03-24T11:07:56;9.98;;;4.88;;
62929;SDS011;49036;42.782;23.108;2023-03-24T11:10:34;7.60;;;4.43;;
62929;SDS011;49036;42.782;23.108;2023-03-24T11:13:00;10.30;;;4.40;;
62929;SDS011;49036;42.782;23.108;2023-03-24T11:15:33;9.60;;;4.18;;
62929;SDS011;49036;42.782;23.108;2023-03-24T11:18:13;13.23;;;4.68;;
62929;SDS011;49036;42.782;23.108;2023-03-24T11:20:44;7.50;;;3.97;;
62929;SDS011;49036;42.782;23.108;2023-03-24T11:26:05;7.93;;;4.57;;
62929;SDS011;49036;42.782;23.108;2023-03-24T11:28:44;8.48;;;4.03;;
62929;SDS011;49036;42.782;23.108;2023-03-24T11:31:11;7.43;;;3.67;;
62929;SDS011;49036;42.782;23.108;2023-03-24T11:39:03;2.70;;;2.47;;
62929;SDS011;49036;42.782;23.108;2023-03-24T11:41:36;3.95;;;2.97;;
62929;SDS011;49036;42.782;23.108;2023-03-24T11:44:28;5.28;;;2.80;;
62929;SDS011;49036;42.782;23.108;2023-03-24T11:47:05;4.22;;;3.28;;
62929;SDS011;49036;42.782;23.108;2023-03-24T11:49:35;5.13;;;3.20;;
62929;SDS011;49036;42.782;23.108;2023-03-24T11:52:04;2.70;;;2.30;;
62929;SDS011;49036;42.782;23.108;2023-03-24T11:54:34;3.78;;;2.45;;
62929;SDS011;49036;42.782;23.108;2023-03-24T11:57:09;5.38;;;2.53;;
62929;SDS011;49036;42.782;23.108;2023-03-24T12:10:25;3.60;;;2.22;;
62929;SDS011;49036;42.782;23.108;2023-03-24T12:13:19;5.60;;;2.85;;
62929;SDS011;49036;42.782;23.108;2023-03-24T12:42:16;3.58;;;2.88;;
62929;SDS011;49036;42.782;23.108;2023-03-24T12:44:48;3.35;;;3.05;;
62929;SDS011;49036;42.782;23.108;2023-03-24T12:51:16;6.45;;;3.10;;
62929;SDS011;49036;42.782;23.108;2023-03-24T12:56:08;5.15;;;2.78;;
62929;SDS011;49036;42.782;23.108;2023-03-24T12:58:40;4.45;;;3.28;;
62929;SDS011;49036;42.782;23.108;2023-03-24T13:01:12;4.80;;;3.38;;
62929;SDS011;49036;42.782;23.108;2023-03-24T13:04:05;5.20;;;3.03;;
62929;SDS011;49036;42.782;23.108;2023-03-24T13:10:54;4.63;;;3.10;;
62929;SDS011;49036;42.782;23.108;2023-03-24T13:13:35;5.38;;;3.42;;
62929;SDS011;49036;42.782;23.108;2023-03-24T13:16:07;3.88;;;3.00;;
62929;SDS011;49036;42.782;23.108;2023-03-24T13:18:38;3.58;;;2.78;;
62929;SDS011;49036;42.782;23.108;2023-03-24T13:22:23;5.38;;;3.40;;
62929;SDS011;49036;42.782;23.108;2023-03-24T13:24:50;4.60;;;3.05;;
62929;SDS011;49036;42.782;23.108;2023-03-24T13:27:30;5.25;;;3.03;;
62929;SDS011;49036;42.782;23.108;2023-03-24T13:32:34;5.97;;;3.78;;
62929;SDS011;49036;42.782;23.108;2023-03-24T13:37:59;3.67;;;3.33;;
62929;SDS011;49036;42.782;23.108;2023-03-24T13:40:27;4.30;;;2.97;;
62929;SDS011;49036;42.782;23.108;2023-03-24T13:42:59;4.65;;;3.33;;
62929;SDS011;49036;42.782;23.108;2023-03-24T13:45:45;4.18;;;3.45;;
62929;SDS011;49036;42.782;23.108;2023-03-24T13:48:16;3.42;;;2.85;;
62929;SDS011;49036;42.782;23.108;2023-03-24T13:50:52;5.97;;;2.80;;
62929;SDS011;49036;42.782;23.108;2023-03-24T13:59:29;3.85;;;2.88;;
62929;SDS011;49036;42.782;23.108;2023-03-24T14:02:15;3.83;;;2.90;;
62929;SDS011;49036;42.782;23.108;2023-03-24T14:04:48;5.43;;;3.45;;
62929;SDS011;49036;42.782;23.108;2023-03-24T14:15:28;4.45;;;3.05;;
62929;SDS011;49036;42.782;23.108;2023-03-24T14:23:36;3.80;;;2.70;;
62929;SDS011;49036;42.782;23.108;2023-03-24T14:26:13;4.18;;;3.20;;
62929;SDS011;49036;42.782;23.108;2023-03-24T14:30:19;4.93;;;2.75;;
62929;SDS011;49036;42.782;23.108;2023-03-24T14:32:58;4.13;;;3.20;;
62929;SDS011;49036;42.782;23.108;2023-03-24T14:35:33;6.10;;;3.55;;
62929;SDS011;49036;42.782;23.108;2023-03-24T14:40:44;5.70;;;3.55;;
62929;SDS011;49036;42.782;23.108;2023-03-24T14:43:23;5.30;;;3.03;;
62929;SDS011;49036;42.782;23.108;2023-03-24T14:50:17;3.95;;;2.47;;
62929;SDS011;49036;42.782;23.108;2023-03-24T14:52:49;3.17;;;2.25;;
62929;SDS011;49036;42.782;23.108;2023-03-24T14:55:19;5.03;;;2.85;;
62929;SDS011;49036;42.782;23.108;2023-03-24T14:57:47;4.88;;;2.80;;
62929;SDS011;49036;42.782;23.108;2023-03-24T15:02:54;3.58;;;2.58;;
62929;SDS011;49036;42.782;23.108;2023-03-24T15:08:01;4.10;;;2.42;;
62929;SDS011;49036;42.782;23.108;2023-03-24T15:10:35;4.88;;;3.03;;
62929;SDS011;49036;42.782;23.108;2023-03-24T15:13:04;6.13;;;3.42;;
62929;SDS011;49036;42.782;23.108;2023-03-24T15:15:47;6.75;;;4.15;;
62929;SDS011;49036;42.782;23.108;2023-03-24T15:20:18;3.67;;;2.55;;
62929;SDS011;49036;42.782;23.108;2023-03-24T15:22:48;4.15;;;2.63;;
62929;SDS011;49036;42.782;23.108;2023-03-24T15:25:15;5.55;;;2.70;;
62929;SDS011;49036;42.782;23.108;2023-03-24T15:27:47;11.38;;;2.80;;
62929;SDS011;49036;42.782;23.108;2023-03-24T15:30:15;7.25;;;2.58;;
62929;SDS011;49036;42.782;23.108;2023-03-24T15:32:40;5.25;;;2.45;;
62929;SDS011;49036;42.782;23.108;2023-03-24T15:35:12;5.30;;;2.35;;
62929;SDS011;49036;42.782;23.108;2023-03-24T15:37:52;4.70;;;2.70;;
62929;SDS011;49036;42.782;23.108;2023-03-24T15:45:28;3.25;;;2.30;;
62929;SDS011;49036;42.782;23.108;2023-03-24T15:48:02;7.32;;;2.60;;
62929;SDS011;49036;42.782;23.108;2023-03-24T15:52:57;4.93;;;2.95;;
62929;SDS011;49036;42.782;23.108;2023-03-24T15:55:29;3.72;;;2.55;;
62929;SDS011;49036;42.782;23.108;2023-03-24T15:59:20;3.22;;;2.58;;
62929;SDS011;49036;42.782;23.108;2023-03-24T16:01:29;3.42;;;2.55;;
62929;SDS011;49036;42.782;23.108;2023-03-24T16:04:02;4.90;;;3.28;;
62929;SDS011;49036;42.782;23.108;2023-03-24T16:06:32;6.47;;;3.17;;
62929;SDS011;49036;42.782;23.108;2023-03-24T16:08:59;4.72;;;2.67;;
62929;SDS011;49036;42.782;23.108;2023-03-24T16:11:29;6.65;;;3.42;;
62929;SDS011;49036;42.782;23.108;2023-03-24T16:13:54;19.65;;;7.68;;
62929;SDS011;49036;42.782;23.108;2023-03-24T16:16:22;9.23;;;3.58;;
62929;SDS011;49036;42.782;23.108;2023-03-24T16:18:52;3.13;;;2.80;;
62929;SDS011;49036;42.782;23.108;2023-03-24T16:21:21;4.05;;;2.47;;
62929;SDS011;49036;42.782;23.108;2023-03-24T16:23:49;3.38;;;3.08;;
62929;SDS011;49036;42.782;23.108;2023-03-24T16:28:46;3.35;;;2.53;;
62929;SDS011;49036;42.782;23.108;2023-03-24T16:31:23;2.97;;;2.67;;
62929;SDS011;49036;42.782;23.108;2023-03-24T16:33:51;4.20;;;2.70;;
62929;SDS011;49036;42.782;23.108;2023-03-24T16:36:17;4.68;;;3.13;;
62929;SDS011;49036;42.782;23.108;2023-03-24T16:38:46;4.47;;;2.78;;
62929;SDS011;49036;42.782;23.108;2023-03-24T16:41:13;4.60;;;3.45;;
62929;SDS011;49036;42.782;23.108;2023-03-24T16:43:42;4.10;;;2.80;;
62929;SDS011;49036;42.782;23.108;2023-03-24T16:46:15;4.07;;;2.42;;
62929;SDS011;49036;42.782;23.108;2023-03-24T16:48:44;3.85;;;2.55;;
62929;SDS011;49036;42.782;23.108;2023-03-24T16:51:11;3.63;;;2.60;;
62929;SDS011;49036;42.782;23.108;2023-03-24T16:53:38;4.57;;;2.28;;
62929;SDS011;49036;42.782;23.108;2023-03-24T16:56:04;4.45;;;3.33;;
62929;SDS011;49036;42.782;23.108;2023-03-24T16:58:30;8.60;;;3.75;;
62929;SDS011;49036;42.782;23.108;2023-03-24T17:00:56;5.45;;;3.03;;
62929;SDS011;49036;42.782;23.108;2023-03-24T17:03:23;5.65;;;3.20;;
62929;SDS011;49036;42.782;23.108;2023-03-24T17:05:53;7.90;;;2.92;;
62929;SDS011;49036;42.782;23.108;2023-03-24T17:08:20;3.90;;;2.90;;
62929;SDS011;49036;42.782;23.108;2023-03-24T17:10:49;8.55;;;3.42;;
62929;SDS011;49036;42.782;23.108;2023-03-24T17:13:18;6.10;;;3.10;;
62929;SDS011;49036;42.782;23.108;2023-03-24T17:15:45;5.80;;;3.22;;
62929;SDS011;49036;42.782;23.108;2023-03-24T17:18:11;9.90;;;3.33;;
62929;SDS011;49036;42.782;23.108;2023-03-24T17:23:04;6.60;;;3.47;;
62929;SDS011;49036;42.782;23.108;2023-03-24T17:25:31;6.35;;;3.05;;
62929;SDS011;49036;42.782;23.108;2023-03-24T17:27:57;5.68;;;3.15;;
62929;SDS011;49036;42.782;23.108;2023-03-24T17:32:50;5.63;;;3.67;;
62929;SDS011;49036;42.782;23.108;2023-03-24T17:35:18;7.13;;;2.67;;
62929;SDS011;49036;42.782;23.108;2023-03-24T17:37:44;5.75;;;3.80;;
62929;SDS011;49036;42.782;23.108;2023-03-24T17:40:13;10.05;;;4.00;;
62929;SDS011;49036;42.782;23.108;2023-03-24T17:42:41;5.70;;;3.92;;
62929;SDS011;49036;42.782;23.108;2023-03-24T17:45:09;8.27;;;3.42;;
62929;SDS011;49036;42.782;23.108;2023-03-24T17:47:37;5.00;;;3.47;;
62929;SDS011;49036;42.782;23.108;2023-03-24T17:50:03;4.85;;;3.08;;
62929;SDS011;49036;42.782;23.108;2023-03-24T17:52:45;5.43;;;2.80;;
62929;SDS011;49036;42.782;23.108;2023-03-24T17:55:13;7.20;;;3.00;;
62929;SDS011;49036;42.782;23.108;2023-03-24T17:57:40;6.88;;;3.90;;
62929;SDS011;49036;42.782;23.108;2023-03-24T18:00:06;10.07;;;4.95;;
62929;SDS011;49036;42.782;23.108;2023-03-24T18:02:40;5.85;;;3.90;;
62929;SDS011;49036;42.782;23.108;2023-03-24T18:05:07;7.10;;;4.63;;
62929;SDS011;49036;42.782;23.108;2023-03-24T18:07:35;43.88;;;20.98;;
62929;SDS011;49036;42.782;23.108;2023-03-24T18:10:02;13.55;;;6.93;;
62929;SDS011;49036;42.782;23.108;2023-03-24T18:12:28;17.80;;;6.85;;
62929;SDS011;49036;42.782;23.108;2023-03-24T18:14:54;16.02;;;8.00;;